Meteo Giornale » Osservazioni meteo Tunisia » Remada
ore: 19:00 - Osservazioni Meteo Remada
Lat. 32° 19' N Lon. 10° 24' E Alt. 300 metri s.l.m.
38 °C
Sereno
Temp. 24 Ore
28 °C
40 °C
Est/Nord-Est
7.4 Km/h
Dew point 12 °C
Umidità 21 %
Visibilità 10 Km
Il sole sorge alle ore 05:53
Il sole tramonta alle ore 18:43
| Data e Ora | Cielo e Fenomeni | T °C | DP °C | Um. % | Pres. hPa | Vis. km | Vento km/h | |
|---|---|---|---|---|---|---|---|---|
| Oggi h: 19:00 | Sereno | 38 | 12 | 21 | 1017 | 10 | E/NE 7.4 | |
| Oggi h: 18:00 | Sereno | 39 | 10 | 17 | 1017 | 10 | E 7.4 | |
| Oggi h: 17:00 | Sereno | 40 | 9 | 15 | 1017 | 10 | E 9.3 | |
| Oggi h: 16:00 | Sereno | 40 | 11 | 17 | 1017 | 10 | E 9.3 | |
| Oggi h: 15:00 | Sereno | 40 | 11 | 17 | 1017 | 10 | E 9.3 | |
| Oggi h: 14:00 | Sereno | 40 | 10 | 16 | 1018 | 10 | E 9.3 | |
| Oggi h: 13:00 | Sereno | 39 | 11 | 18 | 1019 | 10 | N 0 | |
| Oggi h: 12:00 | Sereno | 38 | 11 | 19 | 1019 | 10 | E 11.1 | |
| Oggi h: 11:00 | Sereno | 35 | 14 | 28 | 1020 | 10 | NE 16.7 | |
| Oggi h: 10:00 | Sereno | 35 | 14 | 28 | 1020 | 10 | E 9.3 | |
| Oggi h: 09:00 | Sereno | 33 | 16 | 36 | 1019 | 10 | N 0 | |
| Oggi h: 08:00 | Sereno | 31 | 21 | 55 | 1018 | 10 | N 0 | |
| Oggi h: 07:00 | Sereno | 29 | 21 | 62 | 1018 | 10 | N 0 | |
| Oggi h: 06:00 | Sereno | 28 | 20 | 61 | 1018 | 11 | N 0 | |
| Oggi h: 05:00 | Sereno | 29 | 20 | 58 | 1018 | 10 | N 1.8 | |
| Oggi h: 04:00 | Sereno | 30 | 19 | 51 | 1018 | 10 | N 0 | |
| Oggi h: 03:00 | Sereno | 31 | 16 | 40 | 1018 | 10 | N 3.7 | |
| Oggi h: 02:00 | Sereno | 32 | 13 | 31 | 1018 | 10 | N 5.5 | |
| Oggi h: 01:00 | Sereno | 32 | 11 | 27 | 1018 | 10 | N 7.4 | |
| Oggi h: 00:00 | Sereno | 34 | 9 | 21 | 1018 | 0 | N 3.7 | |
| Ieri h: 23:00 | Sereno | 35 | 8 | 19 | 1018 | 0 | N 0 | |
| Ieri h: 22:00 | Sereno | 37 | 8 | 17 | 1018 | 0 | N 5.5 | |



